createdAt,value
2017-12-29T00:00:57.824Z,934.5
2017-12-29T00:02:05.967Z,934.5
2017-12-29T00:03:14.137Z,934.5
2017-12-29T00:04:22.097Z,934.5
2017-12-29T00:05:30.166Z,934.6
2017-12-29T00:06:38.408Z,934.6
2017-12-29T00:07:46.355Z,934.6
2017-12-29T00:08:54.561Z,934.6
2017-12-29T00:10:02.646Z,934.6
2017-12-29T00:11:10.762Z,934.6
2017-12-29T00:12:18.698Z,934.6
2017-12-29T00:13:26.785Z,934.6
2017-12-29T00:14:34.993Z,934.6
2017-12-29T00:15:42.962Z,934.7
2017-12-29T00:16:51.046Z,934.7
2017-12-29T00:17:59.232Z,934.6
2017-12-29T00:19:07.306Z,934.7
2017-12-29T00:20:15.366Z,934.7
2017-12-29T00:21:23.398Z,934.7
2017-12-29T00:22:31.485Z,934.7
2017-12-29T00:23:39.581Z,934.7
2017-12-29T00:24:47.826Z,934.7
2017-12-29T00:25:56.041Z,934.8
2017-12-29T00:27:03.834Z,934.8
2017-12-29T00:28:11.919Z,934.8
2017-12-29T00:29:20.017Z,934.7
2017-12-29T00:30:28.199Z,934.8
2017-12-29T00:31:36.253Z,934.8
2017-12-29T00:32:44.272Z,934.8
2017-12-29T00:33:52.556Z,934.8
2017-12-29T00:35:00.477Z,934.9
2017-12-29T00:36:08.976Z,934.8
2017-12-29T00:37:17.085Z,934.8
2017-12-29T00:38:25.108Z,934.8
2017-12-29T00:39:33.165Z,934.8
2017-12-29T00:40:41.299Z,934.8
2017-12-29T00:41:49.534Z,934.9
2017-12-29T00:42:57.577Z,934.8
2017-12-29T00:44:05.633Z,934.8
2017-12-29T00:45:13.893Z,934.8
2017-12-29T00:46:21.830Z,934.8
2017-12-29T00:47:29.855Z,934.8
2017-12-29T00:48:38.063Z,934.9
2017-12-29T00:49:46.032Z,934.9
2017-12-29T00:50:54.283Z,934.9
2017-12-29T00:52:02.250Z,934.9
2017-12-29T00:53:10.292Z,934.9
2017-12-29T00:54:18.451Z,934.9
2017-12-29T00:55:26.628Z,934.9
2017-12-29T00:56:34.552Z,934.9
2017-12-29T00:57:42.695Z,934.9
2017-12-29T00:58:50.729Z,934.9
2017-12-29T00:59:58.868Z,934.9
2017-12-29T01:01:06.900Z,934.9
2017-12-29T01:02:15.029Z,934.9
2017-12-29T01:03:23.270Z,934.9
2017-12-29T01:04:31.278Z,934.9
2017-12-29T01:05:39.474Z,935.0
2017-12-29T01:06:47.392Z,935.0
2017-12-29T01:07:55.434Z,935.0
2017-12-29T01:09:03.557Z,935.0
2017-12-29T01:10:11.737Z,935.1
2017-12-29T01:11:19.763Z,935.0
2017-12-29T01:12:27.784Z,935.1
2017-12-29T01:13:36.112Z,935.0
2017-12-29T01:14:43.960Z,935.1
2017-12-29T01:15:52.042Z,935.1
2017-12-29T01:17:00.186Z,935.2
2017-12-29T01:18:08.261Z,935.2
2017-12-29T01:19:16.301Z,935.2
2017-12-29T01:20:24.388Z,935.2
2017-12-29T01:21:32.476Z,935.2
2017-12-29T01:22:40.618Z,935.2
2017-12-29T01:23:48.646Z,935.2
2017-12-29T01:24:56.734Z,935.2
2017-12-29T01:26:04.821Z,935.3
2017-12-29T01:27:13.029Z,935.3
2017-12-29T01:28:21.050Z,935.3
2017-12-29T01:29:29.203Z,935.3
2017-12-29T01:30:37.169Z,935.3
2017-12-29T01:31:45.258Z,935.3
2017-12-29T01:32:53.406Z,935.4
2017-12-29T01:34:01.492Z,935.4
2017-12-29T01:35:09.514Z,935.4
2017-12-29T01:36:17.601Z,935.4
2017-12-29T01:37:25.733Z,935.4
2017-12-29T01:38:34.132Z,935.4
2017-12-29T01:39:42.277Z,935.4
2017-12-29T01:40:50.468Z,935.4
2017-12-29T01:41:58.441Z,935.5
2017-12-29T01:43:06.500Z,935.5
2017-12-29T01:44:14.657Z,935.5
2017-12-29T01:45:22.794Z,935.5
2017-12-29T01:46:30.761Z,935.5
2017-12-29T01:47:38.846Z,935.5
2017-12-29T01:48:46.935Z,935.5
2017-12-29T01:49:55.021Z,935.5
2017-12-29T01:51:03.163Z,935.5
2017-12-29T01:52:11.194Z,935.5
2017-12-29T01:53:19.280Z,935.5
2017-12-29T01:54:27.376Z,935.5
2017-12-29T01:55:35.460Z,935.5
2017-12-29T01:56:43.667Z,935.5
2017-12-29T01:57:51.635Z,935.5
2017-12-29T01:58:59.720Z,935.6
2017-12-29T02:00:07.812Z,935.6
2017-12-29T02:01:15.953Z,935.6
2017-12-29T02:02:24.236Z,935.6
2017-12-29T02:03:32.067Z,935.6
2017-12-29T02:04:40.158Z,935.6
2017-12-29T02:05:48.247Z,935.6
2017-12-29T02:06:56.340Z,935.6
2017-12-29T02:08:04.546Z,935.6
2017-12-29T02:09:12.515Z,935.6
2017-12-29T02:10:20.613Z,935.6
2017-12-29T02:11:28.699Z,935.6
2017-12-29T02:12:36.785Z,935.6
2017-12-29T02:13:44.928Z,935.6
2017-12-29T02:14:53.179Z,935.6
2017-12-29T02:16:01.134Z,935.6
2017-12-29T02:17:09.276Z,935.6
2017-12-29T02:18:17.304Z,935.6
2017-12-29T02:19:25.449Z,935.6
2017-12-29T02:20:33.577Z,935.6
2017-12-29T02:21:41.823Z,935.6
2017-12-29T02:22:49.939Z,935.6
2017-12-29T02:23:58.074Z,935.6
2017-12-29T02:25:06.176Z,935.6
2017-12-29T02:26:14.170Z,935.6
2017-12-29T02:27:22.254Z,935.6
2017-12-29T02:28:30.525Z,935.6
2017-12-29T02:29:38.431Z,935.6
2017-12-29T02:30:46.645Z,935.6
2017-12-29T02:31:54.610Z,935.7
2017-12-29T02:33:02.979Z,935.6
2017-12-29T02:34:10.786Z,935.6
2017-12-29T02:35:18.869Z,935.6
2017-12-29T02:36:27.010Z,935.7
2017-12-29T02:37:35.044Z,935.6
2017-12-29T02:38:43.177Z,935.7
2017-12-29T02:39:51.272Z,935.7
2017-12-29T02:40:59.303Z,935.7
2017-12-29T02:42:07.446Z,935.7
2017-12-29T02:43:15.476Z,935.7
2017-12-29T02:44:23.717Z,935.7
2017-12-29T02:45:31.770Z,935.7
2017-12-29T02:46:39.855Z,935.7
2017-12-29T02:47:48.064Z,935.7
2017-12-29T02:48:56.483Z,935.7
2017-12-29T02:50:04.117Z,935.7
2017-12-29T02:51:12.346Z,935.7
2017-12-29T02:52:20.293Z,935.7
2017-12-29T02:53:28.624Z,935.7
2017-12-29T02:54:36.463Z,935.7
2017-12-29T02:55:44.550Z,935.7
2017-12-29T02:56:52.769Z,935.7
2017-12-29T02:58:00.724Z,935.7
2017-12-29T02:59:09.056Z,935.7
2017-12-29T03:00:16.934Z,935.8
2017-12-29T03:01:24.982Z,935.8
2017-12-29T03:02:33.068Z,935.8
2017-12-29T03:03:41.156Z,935.8
2017-12-29T03:04:49.299Z,935.8
2017-12-29T03:05:57.330Z,935.7
2017-12-29T03:07:05.476Z,935.8
2017-12-29T03:08:13.506Z,935.8
2017-12-29T03:09:21.589Z,935.8
2017-12-29T03:10:29.793Z,935.9
2017-12-29T03:11:37.763Z,935.9
2017-12-29T03:12:45.851Z,935.9
2017-12-29T03:13:53.938Z,935.9
2017-12-29T03:15:02.034Z,935.9
2017-12-29T03:16:10.168Z,935.9
2017-12-29T03:17:18.317Z,935.9
2017-12-29T03:18:26.397Z,935.9
2017-12-29T03:19:34.480Z,935.9
2017-12-29T03:20:42.622Z,935.9
2017-12-29T03:21:50.763Z,935.8
2017-12-29T03:22:58.758Z,935.8
2017-12-29T03:24:06.825Z,935.8
2017-12-29T03:25:14.913Z,935.8
2017-12-29T03:26:23.002Z,935.8
2017-12-29T03:27:31.142Z,935.8
2017-12-29T03:28:39.170Z,935.8
2017-12-29T03:29:47.260Z,935.8
2017-12-29T03:30:55.346Z,935.8
2017-12-29T03:32:03.432Z,935.8
2017-12-29T03:33:11.592Z,935.8
2017-12-29T03:34:19.739Z,935.8
2017-12-29T03:35:27.709Z,935.8
2017-12-29T03:36:35.854Z,935.8
2017-12-29T03:37:43.912Z,935.8
2017-12-29T03:38:52.028Z,935.9
2017-12-29T03:40:00.059Z,935.8
2017-12-29T03:41:08.369Z,935.8
2017-12-29T03:42:16.460Z,935.8
2017-12-29T03:43:24.543Z,935.8
2017-12-29T03:44:32.685Z,935.8
2017-12-29T03:45:40.760Z,935.8
2017-12-29T03:46:48.803Z,935.8
2017-12-29T03:47:56.888Z,935.8
2017-12-29T03:49:04.975Z,935.8
2017-12-29T03:50:13.122Z,935.8
2017-12-29T03:51:21.147Z,935.8
2017-12-29T03:52:29.291Z,935.8
2017-12-29T03:53:37.322Z,935.8
2017-12-29T03:54:45.526Z,935.8
2017-12-29T03:55:53.567Z,935.8
2017-12-29T03:57:01.613Z,935.8
2017-12-29T03:58:09.701Z,935.8
2017-12-29T03:59:17.787Z,935.8
2017-12-29T04:00:25.872Z,935.8
2017-12-29T04:01:34.015Z,935.8
2017-12-29T04:02:42.044Z,935.8
2017-12-29T04:03:50.132Z,935.8
2017-12-29T04:04:58.218Z,935.8
2017-12-29T04:06:06.306Z,935.8
2017-12-29T04:07:14.511Z,935.7
2017-12-29T04:08:22.533Z,935.8
2017-12-29T04:09:30.573Z,935.7
2017-12-29T04:10:38.661Z,935.8
2017-12-29T04:11:46.748Z,935.7
2017-12-29T04:12:55.073Z,935.7
2017-12-29T04:14:02.920Z,935.7
2017-12-29T04:15:11.010Z,935.7
2017-12-29T04:16:19.108Z,935.7
2017-12-29T04:17:27.181Z,935.7
2017-12-29T04:18:35.323Z,935.7
2017-12-29T04:19:43.359Z,935.7
2017-12-29T04:20:51.449Z,935.7
2017-12-29T04:21:59.685Z,935.7
2017-12-29T04:23:07.620Z,935.7
2017-12-29T04:24:15.761Z,935.6
2017-12-29T04:25:23.792Z,935.7
2017-12-29T04:26:32.031Z,935.7
2017-12-29T04:27:39.970Z,935.7
2017-12-29T04:28:48.053Z,935.6
2017-12-29T04:29:56.194Z,935.6
2017-12-29T04:31:04.382Z,935.6
2017-12-29T04:32:12.314Z,935.6
2017-12-29T04:33:20.401Z,935.5
2017-12-29T04:34:28.512Z,935.5
2017-12-29T04:35:36.628Z,935.5
2017-12-29T04:36:44.659Z,935.5
2017-12-29T04:37:52.746Z,935.5
2017-12-29T04:39:00.830Z,935.5
2017-12-29T04:40:08.986Z,935.5
2017-12-29T04:41:17.157Z,935.5
2017-12-29T04:42:25.102Z,935.5
2017-12-29T04:43:33.189Z,935.5
2017-12-29T04:44:41.423Z,935.5
2017-12-29T04:45:49.359Z,935.5
2017-12-29T04:46:57.505Z,935.5
2017-12-29T04:48:05.542Z,935.5
2017-12-29T04:49:13.622Z,935.6
2017-12-29T04:50:21.710Z,935.6
2017-12-29T04:51:29.794Z,935.6
2017-12-29T04:52:37.938Z,935.6
2017-12-29T04:53:45.968Z,935.6
2017-12-29T04:54:54.052Z,935.6
2017-12-29T04:56:02.197Z,935.6
2017-12-29T04:57:10.229Z,935.6
2017-12-29T04:58:18.370Z,935.5
2017-12-29T04:59:26.570Z,935.6
2017-12-29T05:00:34.502Z,935.6
2017-12-29T05:01:42.582Z,935.6
2017-12-29T05:02:50.671Z,935.6
2017-12-29T05:03:58.848Z,935.6
2017-12-29T05:05:06.843Z,935.7
2017-12-29T05:06:14.931Z,935.7
2017-12-29T05:07:23.033Z,935.7
2017-12-29T05:08:31.106Z,935.7
2017-12-29T05:09:39.333Z,935.7
2017-12-29T05:10:47.278Z,935.7
2017-12-29T05:11:55.419Z,935.7
2017-12-29T05:13:03.497Z,935.7
2017-12-29T05:14:11.538Z,935.7
2017-12-29T05:15:19.687Z,935.7
2017-12-29T05:16:27.713Z,935.8
2017-12-29T05:17:35.932Z,935.8
2017-12-29T05:18:43.887Z,935.7
2017-12-29T05:19:51.973Z,935.8
2017-12-29T05:21:00.118Z,935.8
2017-12-29T05:22:08.145Z,935.8
2017-12-29T05:23:16.231Z,935.8
2017-12-29T05:24:24.346Z,935.8
2017-12-29T05:25:32.407Z,935.8
2017-12-29T05:26:40.550Z,935.8
2017-12-29T05:27:48.645Z,935.8
2017-12-29T05:28:56.667Z,935.8
2017-12-29T05:30:04.758Z,935.8
2017-12-29T05:31:12.975Z,935.9
2017-12-29T05:32:21.161Z,935.9
2017-12-29T05:33:29.019Z,935.9
2017-12-29T05:34:37.111Z,935.9
2017-12-29T05:35:45.312Z,935.9
2017-12-29T05:36:53.282Z,935.8
2017-12-29T05:38:01.425Z,935.8
2017-12-29T05:39:09.454Z,935.8
2017-12-29T05:40:17.736Z,935.8
2017-12-29T05:41:25.784Z,935.8
2017-12-29T05:42:33.714Z,935.8
2017-12-29T05:43:41.923Z,935.7
2017-12-29T05:44:49.897Z,935.7
2017-12-29T05:45:57.975Z,935.7
2017-12-29T05:47:06.073Z,935.8
2017-12-29T05:48:14.168Z,935.7
2017-12-29T05:49:22.322Z,935.7
2017-12-29T05:50:30.350Z,935.7
2017-12-29T05:51:38.437Z,935.7
2017-12-29T05:52:46.525Z,935.7
2017-12-29T05:53:54.672Z,935.7
2017-12-29T05:55:02.754Z,935.7
2017-12-29T05:56:10.792Z,935.7
2017-12-29T05:57:18.872Z,935.7
2017-12-29T05:58:26.959Z,935.7
2017-12-29T05:59:35.172Z,935.7
2017-12-29T06:00:43.190Z,935.8
2017-12-29T06:01:51.219Z,935.8
2017-12-29T06:02:59.307Z,935.8
2017-12-29T06:04:07.396Z,935.9
2017-12-29T06:05:15.480Z,935.9
2017-12-29T06:06:23.625Z,935.9
2017-12-29T06:07:31.653Z,935.9
2017-12-29T06:08:39.739Z,935.8
2017-12-29T06:09:47.827Z,935.9
2017-12-29T06:10:55.976Z,935.9
2017-12-29T06:12:04.073Z,935.9
2017-12-29T06:13:12.106Z,935.9
2017-12-29T06:14:20.193Z,935.9
2017-12-29T06:15:28.402Z,935.9
2017-12-29T06:16:36.368Z,935.9
2017-12-29T06:17:44.510Z,935.9
2017-12-29T06:18:52.542Z,935.9
2017-12-29T06:20:00.621Z,935.9
2017-12-29T06:21:08.719Z,935.9
2017-12-29T06:22:16.870Z,935.8
2017-12-29T06:23:25.012Z,935.9
2017-12-29T06:24:32.978Z,935.9
2017-12-29T06:25:41.066Z,935.9
2017-12-29T06:26:49.152Z,935.9
2017-12-29T06:27:57.236Z,935.9
2017-12-29T06:29:05.381Z,935.9
2017-12-29T06:30:13.411Z,935.9
2017-12-29T06:31:21.554Z,935.9
2017-12-29T06:32:30.001Z,935.9
2017-12-29T06:33:38.087Z,935.9
2017-12-29T06:34:46.293Z,935.9
2017-12-29T06:35:54.260Z,935.9
2017-12-29T06:37:02.346Z,935.9
2017-12-29T06:38:10.599Z,935.9
2017-12-29T06:39:18.521Z,935.9
2017-12-29T06:40:26.677Z,935.9
2017-12-29T06:41:34.707Z,935.9
2017-12-29T06:42:42.917Z,935.9
2017-12-29T06:43:50.882Z,935.9
2017-12-29T06:44:58.975Z,935.9
2017-12-29T06:46:07.115Z,935.9
2017-12-29T06:47:15.387Z,935.9
2017-12-29T06:48:23.229Z,935.8
2017-12-29T06:49:31.320Z,935.8
2017-12-29T06:50:39.401Z,935.8
2017-12-29T06:51:47.546Z,935.8
2017-12-29T06:52:55.577Z,935.8
2017-12-29T06:54:03.686Z,935.8
2017-12-29T06:55:11.772Z,935.8
2017-12-29T06:56:19.860Z,935.8
2017-12-29T06:57:28.042Z,935.8
2017-12-29T06:58:36.053Z,935.8
2017-12-29T06:59:44.138Z,935.7
2017-12-29T07:00:52.228Z,935.8
2017-12-29T07:02:00.414Z,935.8
2017-12-29T07:03:08.521Z,935.8
2017-12-29T07:04:16.487Z,935.8
2017-12-29T07:05:24.617Z,935.9
2017-12-29T07:06:32.660Z,935.9
2017-12-29T07:07:40.748Z,935.9
2017-12-29T07:08:48.889Z,935.9
2017-12-29T07:09:57.258Z,935.8
2017-12-29T07:11:05.009Z,935.8
2017-12-29T07:12:13.096Z,935.8
2017-12-29T07:13:21.181Z,935.9
2017-12-29T07:14:29.324Z,935.9
2017-12-29T07:15:37.356Z,935.9
2017-12-29T07:16:45.439Z,935.8
2017-12-29T07:17:53.530Z,935.9
2017-12-29T07:19:01.669Z,935.8
2017-12-29T07:20:09.855Z,935.8
2017-12-29T07:21:17.795Z,935.9
2017-12-29T07:22:25.881Z,935.9
2017-12-29T07:23:33.968Z,935.9
2017-12-29T07:24:42.055Z,935.9
2017-12-29T07:25:50.260Z,935.9
2017-12-29T07:26:58.228Z,935.9
2017-12-29T07:28:06.321Z,936.0
2017-12-29T07:29:14.420Z,936.0
2017-12-29T07:30:22.488Z,936.0
2017-12-29T07:31:30.761Z,936.0
2017-12-29T07:32:38.662Z,936.0
2017-12-29T07:33:46.933Z,936.1
2017-12-29T07:34:54.914Z,936.1
2017-12-29T07:36:02.943Z,936.0
2017-12-29T07:37:11.088Z,936.0
2017-12-29T07:38:19.119Z,936.1
2017-12-29T07:39:27.205Z,936.0
2017-12-29T07:40:35.290Z,936.1
2017-12-29T07:41:43.388Z,936.1
2017-12-29T07:42:51.595Z,936.0
2017-12-29T07:43:59.563Z,936.1
2017-12-29T07:45:07.654Z,936.1
2017-12-29T07:46:15.736Z,936.1
2017-12-29T07:47:23.820Z,936.0
2017-12-29T07:48:32.188Z,936.1
2017-12-29T07:49:40.220Z,936.1
2017-12-29T07:50:48.395Z,936.1
2017-12-29T07:51:56.397Z,936.1
2017-12-29T07:53:04.482Z,936.1
2017-12-29T07:54:13.006Z,936.1
2017-12-29T07:55:20.721Z,936.1
2017-12-29T07:56:28.745Z,936.1
2017-12-29T07:57:36.837Z,936.2
2017-12-29T07:58:44.925Z,936.2
2017-12-29T07:59:53.072Z,936.1
2017-12-29T08:01:01.103Z,936.1
2017-12-29T08:02:09.187Z,936.1
2017-12-29T08:03:17.275Z,936.1
2017-12-29T08:04:25.491Z,936.1
2017-12-29T08:05:33.562Z,936.1
2017-12-29T08:06:41.596Z,936.1
2017-12-29T08:07:49.619Z,936.1
2017-12-29T08:08:57.832Z,936.1
2017-12-29T08:10:05.803Z,936.1
2017-12-29T08:11:15.276Z,936.1
2017-12-29T08:12:23.305Z,936.1
2017-12-29T08:13:31.538Z,936.1
2017-12-29T08:14:39.482Z,936.1
2017-12-29T08:15:47.567Z,936.0
2017-12-29T08:16:55.706Z,936.0
2017-12-29T08:18:03.806Z,936.0
2017-12-29T08:19:11.823Z,936.0
2017-12-29T08:20:19.920Z,935.9
2017-12-29T08:21:28.004Z,935.9
2017-12-29T08:22:36.149Z,935.9
2017-12-29T08:23:44.185Z,935.9
2017-12-29T08:24:52.266Z,935.9
2017-12-29T08:26:00.356Z,935.8
2017-12-29T08:27:08.470Z,935.9
2017-12-29T08:28:16.595Z,935.9
2017-12-29T08:29:24.627Z,935.9
2017-12-29T08:30:32.707Z,935.9
2017-12-29T08:31:40.821Z,935.9
2017-12-29T08:32:48.874Z,936.0
2017-12-29T08:33:57.016Z,936.0
2017-12-29T08:35:05.046Z,936.0
2017-12-29T08:36:13.250Z,936.0
2017-12-29T08:37:21.218Z,936.0
2017-12-29T08:38:29.378Z,936.0
2017-12-29T08:39:37.461Z,936.0
2017-12-29T08:40:45.498Z,936.0
2017-12-29T08:41:53.575Z,936.0
2017-12-29T08:43:01.667Z,936.0
2017-12-29T08:44:09.753Z,936.0
2017-12-29T08:45:18.037Z,936.1
2017-12-29T08:46:26.064Z,936.1
2017-12-29T08:47:34.151Z,936.1
2017-12-29T08:48:42.237Z,936.1
2017-12-29T08:49:50.323Z,936.1
2017-12-29T08:50:58.466Z,936.1
2017-12-29T08:52:06.498Z,936.1
2017-12-29T08:53:14.584Z,936.1
2017-12-29T08:54:22.727Z,936.1
2017-12-29T08:55:30.764Z,936.2
2017-12-29T08:56:38.899Z,936.2
2017-12-29T08:57:46.929Z,936.2
2017-12-29T08:58:55.029Z,936.2
2017-12-29T09:00:03.115Z,936.2
2017-12-29T09:01:11.270Z,936.2
2017-12-29T09:02:19.344Z,936.2
2017-12-29T09:03:27.428Z,936.2
2017-12-29T09:04:35.459Z,936.2
2017-12-29T09:05:43.545Z,936.2
2017-12-29T09:06:51.844Z,936.2
2017-12-29T09:07:59.915Z,936.2
2017-12-29T09:09:07.805Z,936.3
2017-12-29T09:10:15.949Z,936.3
2017-12-29T09:11:23.976Z,936.3
2017-12-29T09:12:32.085Z,936.3
2017-12-29T09:13:40.210Z,936.2
2017-12-29T09:14:48.253Z,936.3
2017-12-29T09:15:56.323Z,936.2
2017-12-29T09:17:04.579Z,936.2
2017-12-29T09:18:12.498Z,936.2
2017-12-29T09:19:20.704Z,936.2
2017-12-29T09:20:28.855Z,936.3
2017-12-29T09:21:36.759Z,936.3
2017-12-29T09:22:44.845Z,936.3
2017-12-29T09:23:52.930Z,936.3
2017-12-29T09:25:01.068Z,936.3
2017-12-29T09:26:09.372Z,936.3
2017-12-29T09:27:17.198Z,936.3
2017-12-29T09:28:25.288Z,936.2
2017-12-29T09:29:33.382Z,936.2
2017-12-29T09:30:41.688Z,936.2
2017-12-29T09:31:49.556Z,936.1
2017-12-29T09:32:57.642Z,936.1
2017-12-29T09:34:05.748Z,936.1
2017-12-29T09:35:13.904Z,936.1
2017-12-29T09:36:21.958Z,936.1
2017-12-29T09:37:29.993Z,936.1
2017-12-29T09:38:38.129Z,936.1
2017-12-29T09:39:46.360Z,936.0
2017-12-29T09:40:54.251Z,936.0
2017-12-29T09:42:02.395Z,936.0
2017-12-29T09:43:10.479Z,936.0
2017-12-29T09:44:18.511Z,935.9
2017-12-29T09:45:26.596Z,935.9
2017-12-29T09:46:34.685Z,935.9
2017-12-29T09:47:42.827Z,935.9
2017-12-29T09:48:50.932Z,935.9
2017-12-29T09:49:58.942Z,935.9
2017-12-29T09:51:07.027Z,935.8
2017-12-29T09:52:15.130Z,935.8
2017-12-29T09:53:23.327Z,935.8
2017-12-29T09:54:31.294Z,935.8
2017-12-29T09:55:39.375Z,935.7
2017-12-29T09:56:47.461Z,935.7
2017-12-29T09:57:55.774Z,935.7
2017-12-29T09:59:03.714Z,935.6
2017-12-29T10:00:11.720Z,935.6
2017-12-29T10:01:19.807Z,935.6
2017-12-29T10:02:27.984Z,935.6
2017-12-29T10:03:35.979Z,935.6
2017-12-29T10:04:44.122Z,935.5
2017-12-29T10:05:52.179Z,935.5
2017-12-29T10:07:00.238Z,935.5
2017-12-29T10:08:08.348Z,935.5
2017-12-29T10:09:16.409Z,935.5
2017-12-29T10:10:24.551Z,935.5
2017-12-29T10:11:32.910Z,935.5
2017-12-29T10:12:41.398Z,935.5
2017-12-29T10:13:49.771Z,935.4
2017-12-29T10:14:57.750Z,935.4
2017-12-29T10:16:05.750Z,935.4
2017-12-29T10:17:13.762Z,935.4
2017-12-29T10:18:21.992Z,935.4
2017-12-29T10:19:29.934Z,935.3
2017-12-29T10:20:38.020Z,935.3
2017-12-29T10:21:46.174Z,935.3
2017-12-29T10:22:54.203Z,935.2
2017-12-29T10:24:02.289Z,935.3
2017-12-29T10:25:10.600Z,935.2
2017-12-29T10:26:18.533Z,935.3
2017-12-29T10:27:32.289Z,935.2
2017-12-29T10:28:34.882Z,935.2
2017-12-29T10:29:43.131Z,935.2
2017-12-29T10:30:50.807Z,935.2
2017-12-29T10:31:59.060Z,935.2
2017-12-29T10:33:07.660Z,935.2
2017-12-29T10:34:15.066Z,935.2
2017-12-29T10:35:23.234Z,935.2
2017-12-29T10:36:31.480Z,935.2
2017-12-29T10:37:39.610Z,935.2
2017-12-29T10:38:48.155Z,935.3
2017-12-29T10:39:55.497Z,935.2
2017-12-29T10:41:03.642Z,935.2
2017-12-29T10:42:11.688Z,935.2
2017-12-29T10:43:19.834Z,935.1
2017-12-29T10:44:27.967Z,935.1
2017-12-29T10:45:37.671Z,935.1
2017-12-29T10:46:44.338Z,935.1
2017-12-29T10:47:52.110Z,935.1
2017-12-29T10:49:00.194Z,935.1
2017-12-29T10:50:08.974Z,935.0
2017-12-29T10:51:16.822Z,935.0
2017-12-29T10:52:24.806Z,935.1
2017-12-29T10:53:32.969Z,935.1
2017-12-29T10:54:40.873Z,935.0
2017-12-29T10:55:49.027Z,935.0
2017-12-29T10:56:57.177Z,935.0
2017-12-29T10:58:05.152Z,935.0
2017-12-29T10:59:13.319Z,935.0
2017-12-29T11:00:21.367Z,935.0
2017-12-29T11:01:29.928Z,935.0
2017-12-29T11:02:37.542Z,935.0
2017-12-29T11:03:45.628Z,935.0
2017-12-29T11:04:53.715Z,935.0
2017-12-29T11:06:01.809Z,935.0
2017-12-29T11:07:10.030Z,935.0
2017-12-29T11:08:18.021Z,935.0
2017-12-29T11:09:26.237Z,935.0
2017-12-29T11:10:34.153Z,935.0
2017-12-29T11:11:42.242Z,935.1
2017-12-29T11:12:50.411Z,935.1
2017-12-29T11:13:58.432Z,935.1
2017-12-29T11:15:06.537Z,935.1
2017-12-29T11:16:14.623Z,935.1
2017-12-29T11:17:22.758Z,935.1
2017-12-29T11:18:30.843Z,935.1
2017-12-29T11:19:38.873Z,935.1
2017-12-29T11:20:47.024Z,935.1
2017-12-29T11:21:55.049Z,935.1
2017-12-29T11:23:03.129Z,935.1
2017-12-29T11:24:11.279Z,935.1
2017-12-29T11:25:19.321Z,935.0
2017-12-29T11:26:27.404Z,934.9
2017-12-29T11:27:35.491Z,934.9
2017-12-29T11:28:43.575Z,935.0
2017-12-29T11:29:51.717Z,935.0
2017-12-29T11:30:59.929Z,935.0
2017-12-29T11:32:07.835Z,935.0
2017-12-29T11:33:16.042Z,935.0
2017-12-29T11:34:24.007Z,935.0
2017-12-29T11:35:32.168Z,935.0
2017-12-29T11:36:40.182Z,935.0
2017-12-29T11:37:48.266Z,934.9
2017-12-29T11:38:56.352Z,934.9
2017-12-29T11:40:04.753Z,934.9
2017-12-29T11:41:12.583Z,934.9
2017-12-29T11:42:20.614Z,934.8
2017-12-29T11:43:28.700Z,934.8
2017-12-29T11:44:36.787Z,934.8
2017-12-29T11:45:45.010Z,934.8
2017-12-29T11:46:53.078Z,934.7
2017-12-29T11:48:01.046Z,934.7
2017-12-29T11:49:09.189Z,934.7
2017-12-29T11:50:17.256Z,934.8
2017-12-29T11:51:25.324Z,934.7
2017-12-29T11:52:33.657Z,934.7
2017-12-29T11:53:41.502Z,934.6
2017-12-29T11:54:49.777Z,934.6
2017-12-29T11:55:57.873Z,934.6
2017-12-29T11:57:05.758Z,934.5
2017-12-29T11:58:13.907Z,934.6
2017-12-29T11:59:21.947Z,934.5
2017-12-29T12:00:30.031Z,934.6
2017-12-29T12:01:38.122Z,934.5
2017-12-29T12:02:46.203Z,934.5
2017-12-29T12:03:54.348Z,934.5
2017-12-29T12:05:02.429Z,934.5
2017-12-29T12:06:10.474Z,934.5
2017-12-29T12:07:18.550Z,934.5
2017-12-29T12:08:26.642Z,934.5
2017-12-29T12:09:34.781Z,934.5
2017-12-29T12:10:42.811Z,934.4
2017-12-29T12:11:50.898Z,934.4
2017-12-29T12:12:58.987Z,934.4
2017-12-29T12:14:07.082Z,934.5
2017-12-29T12:15:15.218Z,934.3
2017-12-29T12:16:23.250Z,934.3
2017-12-29T12:17:31.335Z,934.3
2017-12-29T12:18:39.436Z,934.3
2017-12-29T12:19:47.507Z,934.3
2017-12-29T12:20:55.652Z,934.3
2017-12-29T12:22:03.747Z,934.3
2017-12-29T12:23:11.881Z,934.3
2017-12-29T12:24:19.857Z,934.3
2017-12-29T12:25:27.939Z,934.3
2017-12-29T12:26:36.230Z,934.2
2017-12-29T12:27:44.114Z,934.2
2017-12-29T12:28:52.199Z,934.2
2017-12-29T12:30:00.289Z,934.2
2017-12-29T12:31:08.371Z,934.2
2017-12-29T12:32:16.520Z,934.2
2017-12-29T12:33:24.554Z,934.2
2017-12-29T12:34:32.688Z,934.1
2017-12-29T12:35:40.864Z,934.1
2017-12-29T12:36:48.917Z,934.0
2017-12-29T12:37:57.000Z,934.0
2017-12-29T12:39:05.044Z,934.0
2017-12-29T12:40:13.148Z,933.9
2017-12-29T12:41:21.226Z,933.9
2017-12-29T12:42:29.304Z,933.9
2017-12-29T12:43:37.627Z,933.9
2017-12-29T12:44:45.571Z,933.9
2017-12-29T12:45:53.747Z,933.8
2017-12-29T12:47:01.834Z,933.8
2017-12-29T12:48:09.918Z,933.8
2017-12-29T12:49:18.063Z,933.7
2017-12-29T12:50:26.269Z,933.7
2017-12-29T12:51:34.180Z,933.7
2017-12-29T12:52:42.320Z,933.7
2017-12-29T12:53:50.360Z,933.7
2017-12-29T12:54:58.497Z,933.7
2017-12-29T12:56:06.526Z,933.6
2017-12-29T12:57:14.613Z,933.6
2017-12-29T12:58:22.699Z,933.6
2017-12-29T12:59:30.788Z,933.7
2017-12-29T13:00:38.930Z,933.7
2017-12-29T13:01:48.014Z,933.6
2017-12-29T13:02:55.046Z,933.6
2017-12-29T13:04:03.133Z,933.6
2017-12-29T13:05:11.380Z,933.6
2017-12-29T13:06:19.365Z,933.6
2017-12-29T13:07:27.399Z,933.6
2017-12-29T13:08:35.654Z,933.6
2017-12-29T13:09:43.586Z,933.6
2017-12-29T13:10:51.654Z,933.5
2017-12-29T13:11:59.910Z,933.5
2017-12-29T13:13:07.826Z,933.5
2017-12-29T13:14:15.962Z,933.4
2017-12-29T13:15:23.998Z,933.5
2017-12-29T13:16:32.088Z,933.4
2017-12-29T13:17:40.295Z,933.4
2017-12-29T13:18:48.264Z,933.4
2017-12-29T13:19:56.482Z,933.5
2017-12-29T13:21:04.433Z,933.5
2017-12-29T13:22:12.525Z,933.5
2017-12-29T13:23:20.662Z,933.5
2017-12-29T13:24:28.749Z,933.5
2017-12-29T13:25:36.779Z,933.4
2017-12-29T13:26:44.867Z,933.4
2017-12-29T13:27:52.957Z,933.4
2017-12-29T13:29:01.427Z,933.4
2017-12-29T13:30:09.310Z,933.4
2017-12-29T13:31:17.378Z,933.4
2017-12-29T13:32:25.455Z,933.4
2017-12-29T13:33:33.386Z,933.3
2017-12-29T13:34:41.538Z,933.3
2017-12-29T13:35:49.561Z,933.3
2017-12-29T13:36:57.646Z,933.3
2017-12-29T13:38:05.736Z,933.2
2017-12-29T13:39:22.143Z,933.3
2017-12-29T13:40:22.033Z,933.2
2017-12-29T13:41:29.994Z,933.2
2017-12-29T13:42:38.198Z,933.2
2017-12-29T13:43:46.166Z,933.2
2017-12-29T13:44:54.258Z,933.2
2017-12-29T13:46:02.616Z,933.1
2017-12-29T13:47:10.434Z,933.1
2017-12-29T13:48:18.516Z,933.0
2017-12-29T13:49:26.616Z,933.0
2017-12-29T13:50:34.688Z,932.9
2017-12-29T13:51:42.847Z,932.9
2017-12-29T13:52:50.859Z,932.8
2017-12-29T13:53:58.946Z,932.8
2017-12-29T13:55:07.033Z,932.8
2017-12-29T13:56:15.242Z,932.8
2017-12-29T13:57:23.499Z,932.8
2017-12-29T13:58:31.294Z,932.8
2017-12-29T13:59:39.382Z,932.8
2017-12-29T14:00:47.468Z,932.8
2017-12-29T14:01:55.552Z,932.8
2017-12-29T14:03:03.744Z,932.8
2017-12-29T14:04:11.738Z,932.8
2017-12-29T14:05:19.849Z,932.8
2017-12-29T14:06:27.912Z,932.8
2017-12-29T14:07:36.113Z,932.8
2017-12-29T14:08:44.144Z,932.8
2017-12-29T14:09:52.173Z,932.8
2017-12-29T14:11:00.261Z,932.8
2017-12-29T14:12:08.412Z,932.8
2017-12-29T14:13:16.452Z,932.8
2017-12-29T14:14:24.588Z,932.7
2017-12-29T14:15:32.806Z,932.7
2017-12-29T14:16:40.841Z,932.7
2017-12-29T14:17:48.807Z,932.6
2017-12-29T14:18:56.882Z,932.7
2017-12-29T14:20:05.022Z,932.6
2017-12-29T14:21:13.074Z,932.7
2017-12-29T14:22:21.141Z,932.7
2017-12-29T14:23:29.239Z,932.6
2017-12-29T14:24:37.316Z,932.7
2017-12-29T14:25:45.467Z,932.7
2017-12-29T14:26:53.486Z,932.7
2017-12-29T14:28:01.631Z,932.7
2017-12-29T14:29:09.660Z,932.7
2017-12-29T14:30:18.280Z,932.7
2017-12-29T14:31:26.489Z,932.7
2017-12-29T14:32:34.637Z,932.7
2017-12-29T14:33:42.681Z,932.7
2017-12-29T14:34:50.627Z,932.7
2017-12-29T14:35:58.723Z,932.6
2017-12-29T14:37:06.866Z,932.6